Weather observations for the past three days for
Webster City Municipal Airport
Metric (Imperial)
Date Time (cdt) Wind (kph) Vis. (km) Weather Sky Cond. Temperature (ºC) Relative Humidity Wind Chill (°C) Heat Index (°C) Pressure Precipitation (cm)
Air Dwpt 6 hour altimeter (cm) sea level (mb) 1 hr 3 hr 6 hr
Max. Min.
03 16:15 NW 33 G 43 16.09 Fair and Breezy CLR 24 -2 18% 24 75.54 0.0
03 15:55 NW 26 G 43 16.09 Fair CLR 23 -2 19% 75.54 0.0
03 15:35 NW 35 G 48 16.09 Fair and Breezy CLR 24 -1 19% 24 75.54 0.0
03 14:55 NW 31 G 46 16.09 Fair CLR 23 -4 16% 75.57 0.0
03 14:35 NW 28 G 43 16.09 Fair CLR 23 -3 17% 75.57 0.0
03 14:15 NW 35 16.09 Fair and Breezy CLR 23 -1 20% 75.57 0.0
03 13:55 NW 26 G 44 16.09 Fair CLR 23 0 22% 75.57 0.0
03 13:35 N 26 G 48 16.09 Fair CLR 22 -1 22% 75.57 0.0
03 13:15 N 33 G 52 16.09 Fair and Breezy CLR 22 0 23% 75.57 0.0
03 12:55 NW 35 G 54 16.09 Fair and Breezy CLR 22 1 25% 75.59 0.0
03 12:35 N 35 G 54 16.09 Fair and Breezy CLR 22 1 25% 75.59 0.0
03 12:15 NW 44 16.09 Fair and Windy CLR 22 1 25% 75.59 0.0
03 11:55 N 35 G 57 16.09 Fair and Breezy CLR 21 1 27% 75.59 0.0
03 11:35 NW 31 G 46 16.09 Fair CLR 21 2 29% 75.62 0.0
03 11:15 NW 41 G 50 16.09 Fair and Breezy CLR 20 1 28% 75.62 0.0
03 10:55 NW 33 G 52 16.09 Fair and Breezy CLR 20 2 30% 75.59 0.0
03 10:35 NW 41 16.09 Fair and Breezy CLR 19 2 32% 75.59 0.0
03 10:15 NW 35 16.09 Fair and Breezy CLR 19 2 32% 75.59 0.0
03 09:55 NW 33 16.09 Fair and Breezy CLR 18 2 34% 75.59 0.0
03 09:35 NW 31 16.09 Fair CLR 17 2 37% 75.59 0.0
03 09:15 W 28 G 39 16.09 Fair CLR 16 2 39% 75.59 0.0
03 08:55 W 28 16.09 Fair CLR 15 2 42% 75.57 0.0
03 08:35 W 31 G 41 16.09 Fair CLR 14 2 44% 75.57 0.0
03 08:15 W 31 16.09 Fair CLR 13 1 44% 75.59 0.0
03 07:55 SW 30 16.09 Fair CLR 12 1 47% 75.57 0.0
03 07:35 SW 30 G 41 16.09 Fair CLR 12 1 47% 75.57 0.0
03 07:15 SW 30 G 46 16.09 Fair CLR 12 1 47% 75.57 0.0
03 06:55 SW 31 16.09 Fair CLR 11 0 47% 75.54 0.0
03 06:35 SW 28 G 39 16.09 Fair CLR 11 1 50% 75.54 0.0
03 06:15 SW 31 16.09 A Few Clouds FEW120 11 0 47% 75.54 0.0
03 05:35 SW 30 16.09 A Few Clouds FEW120 11 0 47% 75.57 0.0
03 05:15 SW 30 G 39 16.09 Fair CLR 11 0 47% 75.59 0.0
03 04:55 S 26 G 35 16.09 A Few Clouds FEW120 11 0 47% 75.62 0.0
03 04:35 SW 30 16.09 Mostly Cloudy SCT100 BKN120 11 0 47% 75.64 0.0
03 04:15 S 30 16.09 Overcast FEW040 FEW075 OVC100 12 0 44% 75.64 0.0
03 03:55 SW 28 16.09 Overcast FEW040 FEW070 OVC110 12 0 44% 75.67 0.0
03 03:35 S 31 G 41 16.09 Overcast OVC110 12 -1 41% 75.64 0.0
03 03:15 S 33 16.09 Overcast and Breezy OVC110 12 -1 41% 75.69 0.0
03 02:55 S 37 G 46 16.09 Overcast and Breezy FEW075 BKN095 OVC120 13 -1 38% 75.69 0.0
03 02:35 S 35 16.09 Overcast and Breezy SCT075 OVC095 13 -1 38% 75.74 0.0
03 02:15 S 30 16.09 Overcast FEW060 FEW070 OVC100 12 -1 41% 75.77 0.0
03 01:55 S 26 16.09 Overcast FEW060 BKN095 OVC120 12 -1 41% 75.82 0.0
03 01:35 S 20 16.09 Mostly Cloudy BKN110 11 -1 44% 75.82 0.0
03 01:15 S 24 16.09 A Few Clouds FEW095 FEW120 11 -1 44% 75.82 0.0
03 00:55 S 22 16.09 Partly Cloudy FEW100 SCT120 11 -1 44% 75.84 0.0
03 00:35 S 22 16.09 Overcast OVC100 11 0 47% 75.87 0.0
03 00:15 S 19 16.09 Mostly Cloudy BKN110 11 0 47% 75.9 0.0
02 23:55 S 19 16.09 A Few Clouds FEW100 10 -1 47% 8 75.9 0.0
02 23:35 S 20 16.09 Partly Cloudy SCT100 10 -1 47% 8 75.92 0.0
02 23:15 S 19 16.09 Fair CLR 11 -1 44% 75.92 0.0
02 22:55 S 17 16.09 Fair CLR 11 -1 44% 75.95 0.0
02 22:35 S 19 16.09 Fair CLR 10 -1 47% 8 75.97 0.0
02 22:15 S 22 16.09 Fair CLR 11 -2 41% 76 0.0
02 21:55 S 17 16.09 Fair CLR 11 -1 44% 76.02 0.0
02 21:35 S 17 16.09 Partly Cloudy SCT110 11 -1 44% 76.02 0.0
02 21:15 S 17 16.09 Mostly Cloudy BKN110 12 -1 41% 76.02 0.0
02 20:55 S 15 16.09 Partly Cloudy SCT100 12 -1 41% 76.02 0.0
02 20:35 S 17 16.09 A Few Clouds FEW120 13 -2 36% 76.02 0.0
02 20:15 S 17 16.09 A Few Clouds FEW120 14 -2 33% 76.02 0.0
02 19:55 SW 19 16.09 Fair CLR 16 -3 27% 76.02 0.0
02 19:35 SW 20 16.09 Fair CLR 17 -3 25% 76.02 0.0
02 19:15 SW 15 G 24 16.09 Fair CLR 18 -4 22% 76.05 0.0
02 18:55 S 17 16.09 Fair CLR 18 -4 22% 76.05 0.0
02 18:35 SW 19 16.09 Fair CLR 18 -4 22% 76.07 0.0
02 18:15 W 15 16.09 Fair CLR 18 -4 22% 76.07 0.0
02 17:55 W 17 16.09 Fair CLR 18 -5 21% 76.1 0.0
02 17:35 W 17 16.09 Fair CLR 18 -4 22% 76.12 0.0
02 17:15 SW 9 G 26 16.09 Fair CLR 18 -4 22% 76.12 0.0
02 16:55 W 9 G 22 16.09 Fair CLR 18 -5 21% 76.15 0.0
02 16:35 W 19 16.09 Fair CLR 18 -5 21% 76.17 0.0
02 16:15 W 26 G 35 16.09 Fair CLR 18 -5 21% 76.17 0.0
02 15:55 SW 15 G 26 16.09 Fair CLR 17 -4 24% 76.2 0.0
02 15:35 SW 17 G 31 16.09 Fair CLR 17 -4 24% 76.23 0.0
02 15:15 SW 13 G 24 16.09 Fair CLR 17 -4 24% 76.25 0.0
02 14:55 SW 11 G 24 16.09 Fair CLR 16 -4 25% 76.28 0.0
02 14:35 Vrbl 11 G 31 16.09 Fair CLR 16 -5 23% 76.3 0.0
02 14:15 Vrbl 9 G 31 16.09 Fair CLR 16 -5 23% 76.33 0.0
02 13:55 NW 20 16.09 Fair CLR 15 -4 27% 76.35 0.0
02 13:35 Vrbl 9 G 22 16.09 Fair CLR 15 -5 25% 76.38 0.0
02 13:15 SW 15 16.09 Fair CLR 15 -4 27% 76.4 0.0
02 12:55 W 19 16.09 Fair CLR 14 -5 27% 76.43 0.0
02 12:35 S 9 G 28 16.09 Fair CLR 13 -5 28% 76.45 0.0
02 12:15 Calm 16.09 Fair CLR 13 -5 28% 76.45 0.0
02 11:55 Vrbl 11 G 26 16.09 Fair CLR 13 -5 28% 76.48 0.0
02 11:35 NW 15 16.09 Fair CLR 12 -6 28% 76.48 0.0
02 11:15 W 17 16.09 Fair CLR 12 -5 30% 76.5 0.0
02 10:55 Vrbl 9 G 24 16.09 Fair CLR 12 -5 30% 76.5 0.0
02 10:35 NW 15 16.09 Fair CLR 12 -4 33% 76.5 0.0
02 10:15 Vrbl 9 G 20 16.09 Fair CLR 11 -4 35% 76.53 0.0
02 09:55 W 9 G 22 16.09 Fair CLR 11 -3 38% 76.53 0.0
02 09:35 W 13 16.09 Fair CLR 10 -4 37% 8 76.53 0.0
02 09:15 W 11 16.09 Fair CLR 9 -3 43% 8 76.53 0.0
02 08:55 Vrbl 6 16.09 Fair CLR 9 -3 43% 76.56 0.0
02 08:35 W 6 16.09 Fair CLR 8 -1 53% 76.53 0.0
02 08:15 Calm 16.09 Fair CLR 6 0 66% 76.56 0.0
02 07:55 Calm 16.09 Fair CLR 5 0 70% 76.53 0.0
02 07:35 Calm 16.09 Fair CLR 3 0 81% 76.53 0.0
02 07:15 Calm 16.09 Fair CLR 2 -1 81% 76.53 0.0
02 06:55 NW 7 16.09 Fair CLR 1 -2 81% -1 76.53 0.0
02 06:35 NW 6 16.09 Fair CLR -1 -3 86% 76.5 0.0
02 06:15 NW 6 16.09 Fair CLR -1 -3 86% 76.5 0.0
02 05:55 NW 7 16.09 Fair CLR -1 -3 86% -3 76.5 0.0
02 05:35 NW 9 16.09 Fair CLR -1 -3 86% -4 76.5 0.0
02 05:15 NW 9 16.09 Fair CLR -1 -3 86% -4 76.48 0.0
02 04:55 NW 6 16.09 Fair CLR -1 -3 86% 76.48 0.0
02 04:35 NW 7 16.09 Fair CLR -1 -3 86% -3 76.48 0.0
02 04:15 NW 11 16.09 Fair CLR 0 -3 80% -3 76.48 0.0
02 03:55 NW 6 16.09 Fair CLR -1 -3 86% 76.48 0.0
02 03:35 NW 9 16.09 Fair CLR 0 -3 80% -3 76.45 0.0
02 03:15 N 7 16.09 Fair CLR 0 -3 80% -2 76.45 0.0
02 02:55 NW 7 16.09 Fair CLR 1 -3 75% -1 76.45 0.0
02 02:15 NW 9 16.09 Fair CLR 1 -2 81% -2 76.48 0.0
02 01:55 NW 9 16.09 Fair CLR 1 -2 81% -2 76.48 0.0
02 01:35 NW 7 16.09 Fair CLR 1 -3 75% -1 76.48 0.0
02 01:15 NW 7 16.09 Fair CLR 2 -3 70% 0 76.48 0.0
02 00:55 NW 7 16.09 Fair CLR 2 -3 70% 0 76.48 0.0
02 00:35 N 7 16.09 Fair CLR 3 -3 65% 1 76.48 0.0
02 00:15 N 9 16.09 Fair CLR 3 -3 65% 1 76.48 0.0
01 23:55 N 11 16.09 Fair CLR 3 -3 65% 0 76.45 0.0
01 23:35 NW 6 16.09 Fair CLR 4 -3 61% 76.45 0.0
01 23:15 N 9 16.09 Fair CLR 4 -3 61% 2 76.45 0.0
01 22:55 N 7 16.09 Fair CLR 5 -2 61% 4 76.45 0.0
01 22:35 N 9 16.09 A Few Clouds FEW075 5 -2 61% 3 76.43 0.0
01 22:15 NW 11 16.09 A Few Clouds FEW075 4 -3 61% 2 76.43 0.0
01 21:55 N 9 16.09 Partly Cloudy FEW060 SCT075 6 -2 57% 4 76.43 0.0
01 21:35 N 13 16.09 Mostly Cloudy BKN060 BKN075 7 -2 53% 5 76.4 0.0
01 21:15 N 15 16.09 Overcast SCT060 OVC075 8 -2 50% 6 76.38 0.0
01 20:55 N 11 16.09 Overcast BKN065 OVC075 8 -2 50% 6 76.35 0.0
01 20:35 N 13 16.09 Overcast BKN070 OVC090 9 -2 46% 7 76.35 0.0
01 20:15 N 11 16.09 Overcast OVC090 10 -3 40% 9 76.33 0.0
01 19:55 N 13 16.09 Mostly Cloudy BKN090 10 -3 40% 8 76.33 0.0
01 19:35 N 19 16.09 Mostly Cloudy BKN085 11 -4 35% 76.3 0.0
01 19:15 N 15 16.09 Overcast SCT070 OVC090 11 -4 35% 76.3 0.0
01 18:55 N 22 16.09 Overcast SCT065 SCT075 OVC090 11 -4 35% 76.3 0.0
01 18:35 N 17 16.09 Overcast FEW065 OVC090 11 -3 38% 76.28 0.0
01 18:15 N 15 16.09 Mostly Cloudy BKN090 11 -4 35% 76.28 0.0
01 17:55 N 11 G 28 16.09 Mostly Cloudy BKN090 12 -3 35% 76.28 0.0
01 17:35 N 19 16.09 Mostly Cloudy BKN090 12 -2 38% 76.28 0.0
01 17:15 N 22 16.09 Mostly Cloudy BKN095 12 -3 35% 76.28 0.0
01 16:55 NW 15 G 24 16.09 Mostly Cloudy FEW060 FEW070 BKN095 12 -3 35% 76.28 0.0
01 16:35 N 20 16.09 Partly Cloudy FEW070 SCT095 11 -2 41% 76.28 0.0
01 16:15 N 22 16.09 Mostly Cloudy FEW060 BKN070 BKN095 12 -2 38% 76.28 0.0
01 15:55 N 19 G 28 16.09 Mostly Cloudy FEW080 BKN095 12 -2 38% 76.3 0.0
01 15:35 N 15 G 28 16.09 Mostly Cloudy BKN090 12 -1 41% 76.3 0.0
01 15:15 NW 20 G 31 16.09 Overcast FEW060 FEW070 OVC085 11 -1 44% 76.33 0.0
01 14:55 N 30 16.09 Overcast SCT060 BKN070 OVC090 11 -1 44% 76.3 0.0
01 14:35 N 17 G 30 16.09 Mostly Cloudy FEW055 FEW065 BKN090 12 -2 38% 76.3 0.0
01 14:15 N 19 16.09 Mostly Cloudy BKN090 12 -2 38% 76.3 0.0
01 13:55 NW 15 G 26 16.09 Partly Cloudy SCT080 11 -2 41% 76.3 0.0
01 13:35 N 20 16.09 Mostly Cloudy FEW055 BKN080 11 -2 41% 76.3 0.0
01 13:15 N 20 16.09 Mostly Cloudy BKN080 BKN085 11 -2 41% 76.28 0.0
01 12:55 N 22 16.09 Mostly Cloudy FEW055 FEW065 BKN080 11 -2 41% 76.28 0.0
01 12:35 N 17 G 28 16.09 Overcast SCT060 OVC080 11 -2 41% 76.28 0.0
01 12:15 NE 19 G 33 16.09 Mostly Cloudy FEW060 SCT070 BKN080 11 -2 41% 76.28 0.0
01 11:55 N 17 G 30 16.09 Partly Cloudy FEW048 FEW055 SCT070 12 0 44% 76.28 0.0
01 11:35 N 19 G 50 16.09 Partly Cloudy SCT043 SCT050 SCT065 11 0 47% 76.28 0.0
01 11:15 N 19 16.09 Mostly Cloudy SCT041 SCT049 BKN060 10 1 54% 8 76.28 0.0
01 10:55 N 20 16.09 Mostly Cloudy FEW032 SCT038 BKN060 10 2 58% 8 76.28 0.0
01 10:35 N 19 G 30 16.09 Partly Cloudy SCT031 SCT038 10 3 62% 8 76.28 0.0
01 10:15 N 19 16.09 Partly Cloudy SCT028 10 4 67% 8 76.25 0.0
01 09:55 NE 17 16.09 A Few Clouds FEW075 9 4 71% 7 76.25 0.0
01 09:35 N 17 16.09 Mostly Cloudy SCT070 BKN080 8 4 76% 6 76.28 0.0
01 09:15 N 15 16.09 A Few Clouds FEW085 8 4 76% 6 76.25 0.0
01 08:55 N 17 16.09 Mostly Cloudy SCT060 BKN080 8 5 82% 6 76.25 0.0
01 08:35 N 20 16.09 Overcast OVC060 7 5 87% 4 76.25 0.0
01 08:15 N 20 16.09 Mostly Cloudy BKN060 BKN090 7 5 87% 4 76.25 0.0
01 07:55 NW 13 16.09 Mostly Cloudy SCT055 SCT070 BKN090 6 5 93% 4 76.25 0.0 0.03
01 07:35 N 11 16.09 Overcast FEW039 BKN050 OVC060 5 4 93% 3 76.25 0.0
01 07:15 N 13 8.05 Light Rain Fog/Mist FEW028 BKN049 OVC065 5 4 93% 2 76.23 0.0
01 06:55 NW 17 16.09 Mostly Cloudy FEW026 SCT034 BKN050 5 4 93% 2 76.25 0.0
01 06:35 W 11 12.87 Light Rain SCT026 BKN038 OVC075 4 3 93% 2 76.23 0.0
01 06:15 W 7 16.09 Overcast SCT065 BKN075 OVC100 4 3 93% 2 76.23 0.0
01 05:55 W 7 16.09 Overcast FEW049 BKN070 OVC085 4 2 87% 2 76.23 0.0
01 05:35 Calm 16.09 Overcast OVC070 3 2 93% 76.23 0.0
01 05:15 W 11 16.09 Overcast SCT065 OVC075 4 2 87% 2 76.23 0.0
01 04:55 W 13 16.09 Overcast SCT065 BKN075 OVC100 3 2 93% 0 76.23 0.0
01 04:35 SW 9 16.09 Overcast SCT080 OVC100 2 1 93% -0 76.23 0.0
01 04:15 SW 9 16.09 Mostly Cloudy BKN080 BKN100 2 1 93% -0 76.2 0.0
01 03:55 W 9 16.09 Partly Cloudy SCT080 4 2 87% 2 76.23 0.0
01 03:35 W 6 16.09 Mostly Cloudy FEW060 FEW070 BKN080 3 2 93% 76.23 0.0
01 03:15 Calm 16.09 Mostly Cloudy FEW055 BKN070 BKN085 5 2 81% 76.23 0.0
01 02:55 NW 9 16.09 Overcast BKN055 BKN065 OVC075 6 2 76% 4 76.23 0.0
01 02:35 W 7 16.09 Overcast BKN055 BKN065 OVC080 6 3 81% 5 76.25 0.0
01 02:15 W 9 16.09 Overcast FEW029 OVC055 6 2 76% 4 76.25 0.0
01 01:55 W 11 11.27 Light Rain FEW023 SCT040 OVC060 6 2 76% 4 76.25 0.0
01 01:35 W 13 16.09 Overcast FEW045 OVC060 5 1 76% 2 76.28 0.0
01 01:15 W 13 16.09 Overcast OVC060 5 1 76% 2 76.28 0.0
01 00:55 SW 9 16.09 Overcast SCT055 BKN065 OVC080 5 1 76% 3 76.28 0.0
01 00:35 SW 11 16.09 Overcast FEW055 BKN075 OVC085 5 0 70% 3 76.25 0.0
30 23:35 W 13 16.09 Partly Cloudy SCT070 SCT085 3 -1 75% 0 76.28 0.0
30 23:15 W 9 16.09 Partly Cloudy SCT080 4 -1 70% 2 76.28 0.0
30 22:55 NW 7 16.09 Overcast FEW070 OVC080 5 -1 66% 4 76.28 0.0
30 22:35 NW 7 16.09 Mostly Cloudy BKN080 5 -1 66% 4 76.28 0.0
30 22:15 NW 11 16.09 A Few Clouds FEW075 5 -2 61% 3 76.3 0.0
30 21:55 NW 13 16.09 A Few Clouds FEW095 5 -2 61% 2 76.3 0.0
30 21:35 NW 13 16.09 A Few Clouds FEW100 5 -1 66% 2 76.28 0.0
30 20:55 W 9 16.09 Overcast FEW060 SCT070 OVC080 7 -1 57% 5 76.25 0.0
30 20:35 W 13 16.09 Overcast FEW060 BKN070 OVC075 8 -2 50% 6 76.25 0.0
30 20:15 NW 13 16.09 Partly Cloudy SCT075 8 -3 46% 6 76.25 0.0
30 19:55 NW 15 16.09 Fair CLR 9 -3 43% 7 76.23 0.0
30 19:35 NW 20 16.09 Fair CLR 10 -3 40% 8 76.23 0.0
30 19:15 N 19 16.09 Fair CLR 10 -3 40% 8 76.23 0.0
30 18:55 N 19 16.09 Partly Cloudy SCT090 10 -3 40% 8 76.23 0.0
30 18:35 NW 20 16.09 Mostly Cloudy FEW065 BKN090 10 -3 40% 8 76.23 0.0
30 18:15 N 28 16.09 Mostly Cloudy FEW080 BKN090 11 -4 35% 76.23 0.0
30 17:55 N 31 16.09 Mostly Cloudy FEW070 BKN085 11 -4 35% 76.23 0.0
30 17:35 N 30 G 41 16.09 Overcast FEW070 OVC085 11 -4 35% 76.23 0.0
30 17:15 NW 30 G 44 16.09 Overcast SCT070 OVC085 12 -4 33% 76.23 0.0
30 16:55 N 37 16.09 Overcast and Breezy BKN070 OVC080 11 -3 38% 76.2 0.0
Date Time (cdt) Wind (kph) Vis. (km) Weather Sky Cond. Air Dwpt Max. Min. Relative Humidity Wind Chill (°C) Heat Index (°C) altimeter (cm) sea level (mb) 1 hr 3 hr 6 hr
6 hour
Temperature (ºC) Pressure Precipitation (cm)